sensor_id;sensor_type;location;lat;lon;timestamp;P1;durP1;ratioP1;P2;durP2;ratioP2
63817;SDS011;53093;55.092;73.476;2022-09-29T00:00:47;4.18;;;3.50;;
63817;SDS011;53093;55.092;73.476;2022-09-29T00:03:15;4.28;;;3.70;;
63817;SDS011;53093;55.092;73.476;2022-09-29T00:05:46;6.18;;;4.20;;
63817;SDS011;53093;55.092;73.476;2022-09-29T00:08:13;4.28;;;3.22;;
63817;SDS011;53093;55.092;73.476;2022-09-29T00:10:41;4.40;;;3.58;;
63817;SDS011;53093;55.092;73.476;2022-09-29T00:13:08;4.72;;;3.78;;
63817;SDS011;53093;55.092;73.476;2022-09-29T00:15:44;4.32;;;3.92;;
63817;SDS011;53093;55.092;73.476;2022-09-29T00:18:11;4.50;;;3.83;;
63817;SDS011;53093;55.092;73.476;2022-09-29T00:20:38;7.40;;;5.00;;
63817;SDS011;53093;55.092;73.476;2022-09-29T00:23:05;11.00;;;6.07;;
63817;SDS011;53093;55.092;73.476;2022-09-29T00:25:32;6.50;;;4.45;;
63817;SDS011;53093;55.092;73.476;2022-09-29T00:27:59;6.35;;;4.22;;
63817;SDS011;53093;55.092;73.476;2022-09-29T00:30:31;7.95;;;4.82;;
63817;SDS011;53093;55.092;73.476;2022-09-29T00:32:58;26.52;;;12.55;;
63817;SDS011;53093;55.092;73.476;2022-09-29T00:35:25;40.42;;;18.60;;
63817;SDS011;53093;55.092;73.476;2022-09-29T00:37:52;51.33;;;24.85;;
63817;SDS011;53093;55.092;73.476;2022-09-29T00:40:24;59.38;;;27.00;;
63817;SDS011;53093;55.092;73.476;2022-09-29T00:42:51;51.05;;;25.67;;
63817;SDS011;53093;55.092;73.476;2022-09-29T00:45:20;55.17;;;26.67;;
63817;SDS011;53093;55.092;73.476;2022-09-29T00:47:52;33.35;;;16.42;;
63817;SDS011;53093;55.092;73.476;2022-09-29T00:50:27;26.02;;;13.43;;
63817;SDS011;53093;55.092;73.476;2022-09-29T00:52:59;15.57;;;8.48;;
63817;SDS011;53093;55.092;73.476;2022-09-29T00:55:29;12.55;;;7.20;;
63817;SDS011;53093;55.092;73.476;2022-09-29T00:58:04;7.40;;;5.38;;
63817;SDS011;53093;55.092;73.476;2022-09-29T01:00:34;8.77;;;5.37;;
63817;SDS011;53093;55.092;73.476;2022-09-29T01:03:09;6.70;;;3.95;;
63817;SDS011;53093;55.092;73.476;2022-09-29T01:05:43;4.65;;;3.95;;
63817;SDS011;53093;55.092;73.476;2022-09-29T01:08:16;6.40;;;4.18;;
63817;SDS011;53093;55.092;73.476;2022-09-29T01:10:46;4.80;;;3.70;;
63817;SDS011;53093;55.092;73.476;2022-09-29T01:13:13;4.00;;;3.60;;
63817;SDS011;53093;55.092;73.476;2022-09-29T01:15:51;4.85;;;3.70;;
63817;SDS011;53093;55.092;73.476;2022-09-29T01:18:25;5.05;;;3.78;;
63817;SDS011;53093;55.092;73.476;2022-09-29T01:20:56;4.30;;;3.58;;
63817;SDS011;53093;55.092;73.476;2022-09-29T01:26:02;4.80;;;3.83;;
63817;SDS011;53093;55.092;73.476;2022-09-29T01:31:29;4.80;;;3.88;;
63817;SDS011;53093;55.092;73.476;2022-09-29T01:41:48;5.25;;;4.15;;
63817;SDS011;53093;55.092;73.476;2022-09-29T01:44:28;5.10;;;4.13;;
63817;SDS011;53093;55.092;73.476;2022-09-29T01:49:25;5.40;;;4.30;;
63817;SDS011;53093;55.092;73.476;2022-09-29T01:51:56;6.07;;;4.40;;
63817;SDS011;53093;55.092;73.476;2022-09-29T01:54:46;6.10;;;4.50;;
63817;SDS011;53093;55.092;73.476;2022-09-29T01:57:16;5.25;;;4.55;;
63817;SDS011;53093;55.092;73.476;2022-09-29T01:59:48;5.88;;;4.50;;
63817;SDS011;53093;55.092;73.476;2022-09-29T02:02:19;6.10;;;4.40;;
63817;SDS011;53093;55.092;73.476;2022-09-29T02:04:52;7.25;;;4.88;;
63817;SDS011;53093;55.092;73.476;2022-09-29T02:07:21;10.40;;;4.25;;
63817;SDS011;53093;55.092;73.476;2022-09-29T02:09:51;5.15;;;4.30;;
63817;SDS011;53093;55.092;73.476;2022-09-29T02:12:20;5.65;;;4.57;;
63817;SDS011;53093;55.092;73.476;2022-09-29T02:14:48;5.53;;;4.35;;
63817;SDS011;53093;55.092;73.476;2022-09-29T02:17:35;5.50;;;4.78;;
63817;SDS011;53093;55.092;73.476;2022-09-29T02:20:03;6.53;;;4.72;;
63817;SDS011;53093;55.092;73.476;2022-09-29T02:22:30;4.70;;;4.20;;
63817;SDS011;53093;55.092;73.476;2022-09-29T02:24:58;6.28;;;4.10;;
63817;SDS011;53093;55.092;73.476;2022-09-29T02:27:25;6.65;;;4.63;;
63817;SDS011;53093;55.092;73.476;2022-09-29T02:29:52;4.45;;;3.75;;
63817;SDS011;53093;55.092;73.476;2022-09-29T02:32:30;4.05;;;3.60;;
63817;SDS011;53093;55.092;73.476;2022-09-29T02:34:59;4.70;;;4.05;;
63817;SDS011;53093;55.092;73.476;2022-09-29T02:56:21;4.20;;;3.78;;
63817;SDS011;53093;55.092;73.476;2022-09-29T02:58:59;4.28;;;3.30;;
63817;SDS011;53093;55.092;73.476;2022-09-29T03:01:31;4.68;;;3.30;;
63817;SDS011;53093;55.092;73.476;2022-09-29T03:03:59;3.90;;;3.38;;
63817;SDS011;53093;55.092;73.476;2022-09-29T03:06:27;3.58;;;3.28;;
63817;SDS011;53093;55.092;73.476;2022-09-29T03:08:54;4.40;;;3.60;;
63817;SDS011;53093;55.092;73.476;2022-09-29T03:11:21;3.95;;;3.45;;
63817;SDS011;53093;55.092;73.476;2022-09-29T03:13:49;4.10;;;3.50;;
63817;SDS011;53093;55.092;73.476;2022-09-29T03:16:15;3.70;;;3.28;;
63817;SDS011;53093;55.092;73.476;2022-09-29T03:18:42;5.57;;;3.30;;
63817;SDS011;53093;55.092;73.476;2022-09-29T03:21:13;3.97;;;3.40;;
63817;SDS011;53093;55.092;73.476;2022-09-29T03:23:40;4.20;;;3.50;;
63817;SDS011;53093;55.092;73.476;2022-09-29T03:26:18;4.57;;;3.70;;
63817;SDS011;53093;55.092;73.476;2022-09-29T03:28:46;4.10;;;3.67;;
63817;SDS011;53093;55.092;73.476;2022-09-29T03:31:12;4.18;;;3.72;;
63817;SDS011;53093;55.092;73.476;2022-09-29T03:33:40;5.63;;;3.83;;
63817;SDS011;53093;55.092;73.476;2022-09-29T03:36:16;4.40;;;3.70;;
63817;SDS011;53093;55.092;73.476;2022-09-29T03:38:52;4.28;;;3.80;;
63817;SDS011;53093;55.092;73.476;2022-09-29T03:41:20;5.13;;;3.72;;
63817;SDS011;53093;55.092;73.476;2022-09-29T03:43:52;5.22;;;4.10;;
63817;SDS011;53093;55.092;73.476;2022-09-29T03:46:19;5.85;;;4.38;;
63817;SDS011;53093;55.092;73.476;2022-09-29T03:48:53;5.50;;;4.15;;
63817;SDS011;53093;55.092;73.476;2022-09-29T03:51:20;4.45;;;3.88;;
63817;SDS011;53093;55.092;73.476;2022-09-29T03:53:57;5.57;;;4.10;;
63817;SDS011;53093;55.092;73.476;2022-09-29T03:56:24;5.00;;;3.58;;
63817;SDS011;53093;55.092;73.476;2022-09-29T03:58:51;4.45;;;3.67;;
63817;SDS011;53093;55.092;73.476;2022-09-29T04:01:18;4.10;;;3.58;;
63817;SDS011;53093;55.092;73.476;2022-09-29T04:03:45;3.97;;;3.58;;
63817;SDS011;53093;55.092;73.476;2022-09-29T04:06:12;3.55;;;3.22;;
63817;SDS011;53093;55.092;73.476;2022-09-29T04:08:39;3.90;;;3.50;;
63817;SDS011;53093;55.092;73.476;2022-09-29T04:11:06;4.43;;;3.45;;
63817;SDS011;53093;55.092;73.476;2022-09-29T04:13:33;4.03;;;3.45;;
63817;SDS011;53093;55.092;73.476;2022-09-29T04:16:02;4.15;;;3.67;;
63817;SDS011;53093;55.092;73.476;2022-09-29T04:18:29;4.13;;;3.72;;
63817;SDS011;53093;55.092;73.476;2022-09-29T04:20:57;6.63;;;5.13;;
63817;SDS011;53093;55.092;73.476;2022-09-29T04:23:26;3.85;;;3.45;;
63817;SDS011;53093;55.092;73.476;2022-09-29T04:25:58;5.88;;;4.10;;
63817;SDS011;53093;55.092;73.476;2022-09-29T04:28:33;7.70;;;6.82;;
63817;SDS011;53093;55.092;73.476;2022-09-29T04:31:00;4.38;;;3.97;;
63817;SDS011;53093;55.092;73.476;2022-09-29T04:33:27;4.15;;;3.60;;
63817;SDS011;53093;55.092;73.476;2022-09-29T04:35:56;4.47;;;4.05;;
63817;SDS011;53093;55.092;73.476;2022-09-29T04:38:23;3.70;;;3.17;;
63817;SDS011;53093;55.092;73.476;2022-09-29T04:40:50;3.67;;;3.38;;
63817;SDS011;53093;55.092;73.476;2022-09-29T04:43:17;5.03;;;3.65;;
63817;SDS011;53093;55.092;73.476;2022-09-29T04:45:44;3.88;;;3.47;;
63817;SDS011;53093;55.092;73.476;2022-09-29T04:48:11;4.13;;;3.50;;
63817;SDS011;53093;55.092;73.476;2022-09-29T04:50:38;4.97;;;4.03;;
63817;SDS011;53093;55.092;73.476;2022-09-29T04:53:05;4.00;;;3.58;;
63817;SDS011;53093;55.092;73.476;2022-09-29T04:55:32;4.53;;;3.60;;
63817;SDS011;53093;55.092;73.476;2022-09-29T04:57:59;4.35;;;3.33;;
63817;SDS011;53093;55.092;73.476;2022-09-29T05:00:26;11.35;;;8.48;;
63817;SDS011;53093;55.092;73.476;2022-09-29T05:02:53;4.32;;;3.85;;
63817;SDS011;53093;55.092;73.476;2022-09-29T05:05:20;5.55;;;4.65;;
63817;SDS011;53093;55.092;73.476;2022-09-29T05:07:57;5.18;;;4.68;;
63817;SDS011;53093;55.092;73.476;2022-09-29T05:10:25;6.15;;;4.32;;
63817;SDS011;53093;55.092;73.476;2022-09-29T05:12:52;4.82;;;4.18;;
63817;SDS011;53093;55.092;73.476;2022-09-29T05:15:23;4.72;;;3.65;;
63817;SDS011;53093;55.092;73.476;2022-09-29T05:17:51;5.25;;;3.78;;
63817;SDS011;53093;55.092;73.476;2022-09-29T05:20:18;4.13;;;3.72;;
63817;SDS011;53093;55.092;73.476;2022-09-29T05:22:45;5.50;;;3.72;;
63817;SDS011;53093;55.092;73.476;2022-09-29T05:25:16;5.20;;;3.85;;
63817;SDS011;53093;55.092;73.476;2022-09-29T05:35:59;5.15;;;3.20;;
63817;SDS011;53093;55.092;73.476;2022-09-29T05:38:27;4.05;;;3.50;;
63817;SDS011;53093;55.092;73.476;2022-09-29T05:40:53;4.10;;;3.58;;
63817;SDS011;53093;55.092;73.476;2022-09-29T05:43:20;4.40;;;3.85;;
63817;SDS011;53093;55.092;73.476;2022-09-29T05:45:47;3.90;;;3.50;;
63817;SDS011;53093;55.092;73.476;2022-09-29T05:48:14;4.40;;;3.80;;
63817;SDS011;53093;55.092;73.476;2022-09-29T05:50:41;6.88;;;4.03;;
63817;SDS011;53093;55.092;73.476;2022-09-29T05:53:09;6.63;;;4.20;;
63817;SDS011;53093;55.092;73.476;2022-09-29T05:55:37;4.72;;;3.80;;
63817;SDS011;53093;55.092;73.476;2022-09-29T05:58:04;3.65;;;3.30;;
63817;SDS011;53093;55.092;73.476;2022-09-29T06:00:31;4.13;;;3.65;;
63817;SDS011;53093;55.092;73.476;2022-09-29T06:03:08;4.72;;;3.67;;
63817;SDS011;53093;55.092;73.476;2022-09-29T06:05:38;4.13;;;3.63;;
63817;SDS011;53093;55.092;73.476;2022-09-29T06:08:05;5.53;;;3.65;;
63817;SDS011;53093;55.092;73.476;2022-09-29T06:10:33;5.15;;;4.00;;
63817;SDS011;53093;55.092;73.476;2022-09-29T06:13:00;4.00;;;3.60;;
63817;SDS011;53093;55.092;73.476;2022-09-29T06:15:28;5.68;;;3.78;;
63817;SDS011;53093;55.092;73.476;2022-09-29T06:17:59;4.45;;;3.83;;
63817;SDS011;53093;55.092;73.476;2022-09-29T06:20:26;4.40;;;4.00;;
63817;SDS011;53093;55.092;73.476;2022-09-29T06:22:54;3.67;;;3.22;;
63817;SDS011;53093;55.092;73.476;2022-09-29T06:25:26;5.20;;;4.15;;
63817;SDS011;53093;55.092;73.476;2022-09-29T06:28:04;4.47;;;4.07;;
63817;SDS011;53093;55.092;73.476;2022-09-29T06:30:38;4.40;;;3.50;;
63817;SDS011;53093;55.092;73.476;2022-09-29T06:33:05;5.18;;;4.20;;
63817;SDS011;53093;55.092;73.476;2022-09-29T06:35:46;4.30;;;3.90;;
63817;SDS011;53093;55.092;73.476;2022-09-29T06:38:33;4.65;;;4.03;;
63817;SDS011;53093;55.092;73.476;2022-09-29T06:41:05;5.55;;;4.07;;
63817;SDS011;53093;55.092;73.476;2022-09-29T06:43:37;4.20;;;3.80;;
63817;SDS011;53093;55.092;73.476;2022-09-29T06:46:04;3.97;;;3.58;;
63817;SDS011;53093;55.092;73.476;2022-09-29T06:48:37;4.00;;;3.55;;
63817;SDS011;53093;55.092;73.476;2022-09-29T06:51:10;4.72;;;4.00;;
63817;SDS011;53093;55.092;73.476;2022-09-29T06:53:37;4.68;;;3.63;;
63817;SDS011;53093;55.092;73.476;2022-09-29T06:56:08;4.22;;;3.83;;
63817;SDS011;53093;55.092;73.476;2022-09-29T06:58:45;4.63;;;3.90;;
63817;SDS011;53093;55.092;73.476;2022-09-29T07:04:58;3.72;;;3.33;;
63817;SDS011;53093;55.092;73.476;2022-09-29T07:07:25;4.10;;;3.70;;
63817;SDS011;53093;55.092;73.476;2022-09-29T07:09:52;5.40;;;3.78;;
63817;SDS011;53093;55.092;73.476;2022-09-29T07:12:19;4.47;;;4.03;;
63817;SDS011;53093;55.092;73.476;2022-09-29T07:14:47;5.10;;;3.97;;
63817;SDS011;53093;55.092;73.476;2022-09-29T07:17:14;4.18;;;3.78;;
63817;SDS011;53093;55.092;73.476;2022-09-29T07:19:42;4.07;;;3.63;;
63817;SDS011;53093;55.092;73.476;2022-09-29T07:22:19;4.13;;;3.70;;
63817;SDS011;53093;55.092;73.476;2022-09-29T07:24:52;4.63;;;3.88;;
63817;SDS011;53093;55.092;73.476;2022-09-29T07:27:31;4.57;;;3.80;;
63817;SDS011;53093;55.092;73.476;2022-09-29T07:29:59;4.45;;;3.92;;
63817;SDS011;53093;55.092;73.476;2022-09-29T07:32:32;3.90;;;3.33;;
63817;SDS011;53093;55.092;73.476;2022-09-29T07:35:04;4.38;;;3.97;;
63817;SDS011;53093;55.092;73.476;2022-09-29T07:37:49;4.10;;;3.38;;
63817;SDS011;53093;55.092;73.476;2022-09-29T07:40:22;5.43;;;3.95;;
63817;SDS011;53093;55.092;73.476;2022-09-29T07:42:49;3.58;;;3.28;;
63817;SDS011;53093;55.092;73.476;2022-09-29T07:45:27;4.47;;;3.55;;
63817;SDS011;53093;55.092;73.476;2022-09-29T07:48:04;4.10;;;3.30;;
63817;SDS011;53093;55.092;73.476;2022-09-29T07:50:31;5.45;;;3.63;;
63817;SDS011;53093;55.092;73.476;2022-09-29T07:53:08;4.10;;;3.70;;
63817;SDS011;53093;55.092;73.476;2022-09-29T07:55:35;4.50;;;3.70;;
63817;SDS011;53093;55.092;73.476;2022-09-29T07:58:02;5.85;;;3.90;;
63817;SDS011;53093;55.092;73.476;2022-09-29T08:00:29;3.80;;;3.45;;
63817;SDS011;53093;55.092;73.476;2022-09-29T08:03:06;10.15;;;3.95;;
63817;SDS011;53093;55.092;73.476;2022-09-29T08:05:33;4.65;;;3.83;;
63817;SDS011;53093;55.092;73.476;2022-09-29T08:08:01;5.35;;;4.07;;
63817;SDS011;53093;55.092;73.476;2022-09-29T08:10:32;4.15;;;3.75;;
63817;SDS011;53093;55.092;73.476;2022-09-29T08:12:59;4.47;;;3.80;;
63817;SDS011;53093;55.092;73.476;2022-09-29T08:15:31;4.55;;;4.07;;
63817;SDS011;53093;55.092;73.476;2022-09-29T08:17:58;4.68;;;4.18;;
63817;SDS011;53093;55.092;73.476;2022-09-29T08:20:30;4.60;;;4.15;;
63817;SDS011;53093;55.092;73.476;2022-09-29T08:22:57;4.78;;;3.85;;
63817;SDS011;53093;55.092;73.476;2022-09-29T08:25:24;5.32;;;4.20;;
63817;SDS011;53093;55.092;73.476;2022-09-29T08:27:51;4.60;;;4.05;;
63817;SDS011;53093;55.092;73.476;2022-09-29T08:30:18;5.00;;;4.47;;
63817;SDS011;53093;55.092;73.476;2022-09-29T08:32:52;5.10;;;4.57;;
63817;SDS011;53093;55.092;73.476;2022-09-29T08:35:19;7.25;;;4.93;;
63817;SDS011;53093;55.092;73.476;2022-09-29T08:37:46;7.32;;;4.93;;
63817;SDS011;53093;55.092;73.476;2022-09-29T08:40:14;4.85;;;4.30;;
63817;SDS011;53093;55.092;73.476;2022-09-29T08:42:52;6.32;;;5.10;;
63817;SDS011;53093;55.092;73.476;2022-09-29T08:45:32;6.88;;;5.63;;
63817;SDS011;53093;55.092;73.476;2022-09-29T08:48:15;7.47;;;5.97;;
63817;SDS011;53093;55.092;73.476;2022-09-29T08:50:55;6.15;;;5.55;;
63817;SDS011;53093;55.092;73.476;2022-09-29T08:53:26;5.93;;;5.10;;
63817;SDS011;53093;55.092;73.476;2022-09-29T08:55:56;5.57;;;4.82;;
63817;SDS011;53093;55.092;73.476;2022-09-29T08:58:23;6.30;;;5.32;;
63817;SDS011;53093;55.092;73.476;2022-09-29T09:00:57;7.55;;;5.50;;
63817;SDS011;53093;55.092;73.476;2022-09-29T09:03:46;6.28;;;4.70;;
63817;SDS011;53093;55.092;73.476;2022-09-29T09:06:29;5.20;;;4.57;;
63817;SDS011;53093;55.092;73.476;2022-09-29T09:11:55;6.90;;;4.45;;
63817;SDS011;53093;55.092;73.476;2022-09-29T09:14:45;5.10;;;4.20;;
63817;SDS011;53093;55.092;73.476;2022-09-29T09:17:41;7.00;;;4.97;;
63817;SDS011;53093;55.092;73.476;2022-09-29T09:22:44;5.43;;;4.88;;
63817;SDS011;53093;55.092;73.476;2022-09-29T09:25:22;7.60;;;6.43;;
63817;SDS011;53093;55.092;73.476;2022-09-29T09:28:00;5.63;;;4.82;;
63817;SDS011;53093;55.092;73.476;2022-09-29T09:32:57;4.65;;;3.70;;
63817;SDS011;53093;55.092;73.476;2022-09-29T09:37:57;5.38;;;4.60;;
63817;SDS011;53093;55.092;73.476;2022-09-29T09:40:26;5.63;;;4.45;;
63817;SDS011;53093;55.092;73.476;2022-09-29T09:45:27;5.50;;;4.68;;
63817;SDS011;53093;55.092;73.476;2022-09-29T09:47:58;5.82;;;4.15;;
63817;SDS011;53093;55.092;73.476;2022-09-29T09:50:27;5.55;;;4.40;;
63817;SDS011;53093;55.092;73.476;2022-09-29T09:52:56;6.13;;;4.22;;
63817;SDS011;53093;55.092;73.476;2022-09-29T09:55:24;4.97;;;4.47;;
63817;SDS011;53093;55.092;73.476;2022-09-29T10:00:25;4.93;;;4.45;;
63817;SDS011;53093;55.092;73.476;2022-09-29T10:02:55;5.53;;;4.40;;
63817;SDS011;53093;55.092;73.476;2022-09-29T10:05:23;4.82;;;4.00;;
63817;SDS011;53093;55.092;73.476;2022-09-29T10:07:52;4.60;;;4.00;;
63817;SDS011;53093;55.092;73.476;2022-09-29T10:10:25;4.70;;;4.20;;
63817;SDS011;53093;55.092;73.476;2022-09-29T10:12:55;4.90;;;4.10;;
63817;SDS011;53093;55.092;73.476;2022-09-29T10:18:43;5.28;;;4.20;;
63817;SDS011;53093;55.092;73.476;2022-09-29T10:20:51;4.75;;;4.25;;
63817;SDS011;53093;55.092;73.476;2022-09-29T10:23:36;3.95;;;3.55;;
63817;SDS011;53093;55.092;73.476;2022-09-29T10:26:22;5.38;;;3.97;;
63817;SDS011;53093;55.092;73.476;2022-09-29T10:29:03;4.07;;;3.60;;
63817;SDS011;53093;55.092;73.476;2022-09-29T10:31:42;4.68;;;3.90;;
63817;SDS011;53093;55.092;73.476;2022-09-29T10:34:15;3.97;;;3.58;;
63817;SDS011;53093;55.092;73.476;2022-09-29T10:37:02;4.10;;;3.70;;
63817;SDS011;53093;55.092;73.476;2022-09-29T10:42:00;4.38;;;3.70;;
63817;SDS011;53093;55.092;73.476;2022-09-29T10:44:36;6.05;;;4.75;;
63817;SDS011;53093;55.092;73.476;2022-09-29T10:47:13;6.60;;;5.13;;
63817;SDS011;53093;55.092;73.476;2022-09-29T10:50:08;5.63;;;4.07;;
63817;SDS011;53093;55.092;73.476;2022-09-29T10:52:40;7.57;;;4.28;;
63817;SDS011;53093;55.092;73.476;2022-09-29T10:55:13;7.53;;;4.53;;
63817;SDS011;53093;55.092;73.476;2022-09-29T10:57:43;6.05;;;4.13;;
63817;SDS011;53093;55.092;73.476;2022-09-29T11:00:35;6.22;;;4.00;;
63817;SDS011;53093;55.092;73.476;2022-09-29T11:05:29;4.05;;;3.65;;
63817;SDS011;53093;55.092;73.476;2022-09-29T11:08:06;4.88;;;4.38;;
63817;SDS011;53093;55.092;73.476;2022-09-29T11:10:37;6.88;;;4.60;;
63817;SDS011;53093;55.092;73.476;2022-09-29T11:13:49;5.47;;;4.60;;
63817;SDS011;53093;55.092;73.476;2022-09-29T11:15:51;4.43;;;4.05;;
63817;SDS011;53093;55.092;73.476;2022-09-29T11:18:20;4.13;;;3.80;;
63817;SDS011;53093;55.092;73.476;2022-09-29T11:20:50;4.30;;;3.90;;
63817;SDS011;53093;55.092;73.476;2022-09-29T11:28:19;5.03;;;4.13;;
63817;SDS011;53093;55.092;73.476;2022-09-29T11:33:41;8.38;;;4.60;;
63817;SDS011;53093;55.092;73.476;2022-09-29T11:43:53;6.43;;;4.60;;
63817;SDS011;53093;55.092;73.476;2022-09-29T11:46:28;6.50;;;4.95;;
63817;SDS011;53093;55.092;73.476;2022-09-29T11:57:18;4.95;;;4.45;;
63817;SDS011;53093;55.092;73.476;2022-09-29T12:02:39;6.57;;;4.78;;
63817;SDS011;53093;55.092;73.476;2022-09-29T12:05:20;5.75;;;4.25;;
63817;SDS011;53093;55.092;73.476;2022-09-29T12:08:10;5.40;;;4.22;;
63817;SDS011;53093;55.092;73.476;2022-09-29T12:10:48;5.25;;;4.25;;
63817;SDS011;53093;55.092;73.476;2022-09-29T12:13:21;4.80;;;3.70;;
63817;SDS011;53093;55.092;73.476;2022-09-29T12:15:53;4.43;;;3.63;;
63817;SDS011;53093;55.092;73.476;2022-09-29T12:18:26;4.18;;;3.78;;
63817;SDS011;53093;55.092;73.476;2022-09-29T12:20:55;4.38;;;3.28;;
63817;SDS011;53093;55.092;73.476;2022-09-29T12:23:24;3.95;;;3.38;;
63817;SDS011;53093;55.092;73.476;2022-09-29T12:28:55;5.07;;;3.28;;
63817;SDS011;53093;55.092;73.476;2022-09-29T12:34:08;3.47;;;3.17;;
63817;SDS011;53093;55.092;73.476;2022-09-29T12:44:52;5.60;;;3.22;;
63817;SDS011;53093;55.092;73.476;2022-09-29T12:49:56;3.40;;;3.10;;
63817;SDS011;53093;55.092;73.476;2022-09-29T12:52:28;4.47;;;3.05;;
63817;SDS011;53093;55.092;73.476;2022-09-29T12:54:58;4.38;;;3.30;;
63817;SDS011;53093;55.092;73.476;2022-09-29T12:57:29;3.40;;;3.10;;
63817;SDS011;53093;55.092;73.476;2022-09-29T13:15:43;5.10;;;3.88;;
63817;SDS011;53093;55.092;73.476;2022-09-29T13:18:27;5.88;;;4.15;;
63817;SDS011;53093;55.092;73.476;2022-09-29T13:24:05;5.97;;;3.85;;
63817;SDS011;53093;55.092;73.476;2022-09-29T13:26:41;3.90;;;3.40;;
63817;SDS011;53093;55.092;73.476;2022-09-29T13:29:19;4.57;;;3.00;;
63817;SDS011;53093;55.092;73.476;2022-09-29T13:31:46;5.15;;;3.20;;
63817;SDS011;53093;55.092;73.476;2022-09-29T13:34:28;5.90;;;3.70;;
63817;SDS011;53093;55.092;73.476;2022-09-29T13:39:59;4.90;;;3.20;;
63817;SDS011;53093;55.092;73.476;2022-09-29T13:42:42;7.05;;;3.55;;
63817;SDS011;53093;55.092;73.476;2022-09-29T13:47:48;6.45;;;3.50;;
63817;SDS011;53093;55.092;73.476;2022-09-29T13:55:55;3.92;;;3.20;;
63817;SDS011;53093;55.092;73.476;2022-09-29T13:58:35;7.78;;;4.75;;
63817;SDS011;53093;55.092;73.476;2022-09-29T14:01:05;8.95;;;5.07;;
63817;SDS011;53093;55.092;73.476;2022-09-29T14:03:34;7.60;;;4.20;;
63817;SDS011;53093;55.092;73.476;2022-09-29T14:06:14;5.20;;;4.25;;
63817;SDS011;53093;55.092;73.476;2022-09-29T14:08:45;4.70;;;3.88;;
63817;SDS011;53093;55.092;73.476;2022-09-29T14:14:04;4.57;;;3.60;;
63817;SDS011;53093;55.092;73.476;2022-09-29T14:21:58;4.57;;;3.83;;
63817;SDS011;53093;55.092;73.476;2022-09-29T14:35:23;4.93;;;4.22;;
63817;SDS011;53093;55.092;73.476;2022-09-29T14:38:38;6.38;;;4.28;;
63817;SDS011;53093;55.092;73.476;2022-09-29T14:40:39;5.65;;;4.53;;
63817;SDS011;53093;55.092;73.476;2022-09-29T14:43:18;7.80;;;4.80;;
63817;SDS011;53093;55.092;73.476;2022-09-29T14:51:53;5.43;;;4.45;;
63817;SDS011;53093;55.092;73.476;2022-09-29T14:57:18;6.20;;;4.47;;
63817;SDS011;53093;55.092;73.476;2022-09-29T15:04:38;5.85;;;4.28;;
63817;SDS011;53093;55.092;73.476;2022-09-29T15:07:09;5.72;;;4.30;;
63817;SDS011;53093;55.092;73.476;2022-09-29T15:09:47;5.65;;;4.43;;
63817;SDS011;53093;55.092;73.476;2022-09-29T15:12:15;4.75;;;3.90;;
63817;SDS011;53093;55.092;73.476;2022-09-29T15:14:45;5.10;;;4.22;;
63817;SDS011;53093;55.092;73.476;2022-09-29T15:27:29;6.63;;;4.32;;
63817;SDS011;53093;55.092;73.476;2022-09-29T15:29:58;5.50;;;4.45;;
63817;SDS011;53093;55.092;73.476;2022-09-29T15:32:26;6.32;;;4.25;;
63817;SDS011;53093;55.092;73.476;2022-09-29T15:34:58;4.55;;;4.05;;
63817;SDS011;53093;55.092;73.476;2022-09-29T15:37:28;5.47;;;3.80;;
63817;SDS011;53093;55.092;73.476;2022-09-29T15:40:03;5.57;;;4.20;;
63817;SDS011;53093;55.092;73.476;2022-09-29T15:42:36;5.07;;;3.95;;
63817;SDS011;53093;55.092;73.476;2022-09-29T15:45:23;5.88;;;4.35;;
63817;SDS011;53093;55.092;73.476;2022-09-29T15:50:26;5.07;;;3.88;;
63817;SDS011;53093;55.092;73.476;2022-09-29T15:52:53;4.43;;;3.80;;
63817;SDS011;53093;55.092;73.476;2022-09-29T15:55:21;4.97;;;3.78;;
63817;SDS011;53093;55.092;73.476;2022-09-29T15:57:49;4.45;;;3.80;;
63817;SDS011;53093;55.092;73.476;2022-09-29T16:03:11;5.10;;;3.78;;
63817;SDS011;53093;55.092;73.476;2022-09-29T16:05:37;3.90;;;3.50;;
63817;SDS011;53093;55.092;73.476;2022-09-29T16:08:15;4.10;;;3.60;;
63817;SDS011;53093;55.092;73.476;2022-09-29T16:10:55;4.78;;;3.78;;
63817;SDS011;53093;55.092;73.476;2022-09-29T16:13:24;4.05;;;3.47;;
63817;SDS011;53093;55.092;73.476;2022-09-29T16:15:56;4.63;;;3.83;;
63817;SDS011;53093;55.092;73.476;2022-09-29T16:18:25;4.82;;;4.07;;
63817;SDS011;53093;55.092;73.476;2022-09-29T16:20:54;4.25;;;3.40;;
63817;SDS011;53093;55.092;73.476;2022-09-29T16:23:26;5.13;;;4.05;;
63817;SDS011;53093;55.092;73.476;2022-09-29T16:28:34;4.93;;;3.75;;
63817;SDS011;53093;55.092;73.476;2022-09-29T16:31:16;4.70;;;4.03;;
63817;SDS011;53093;55.092;73.476;2022-09-29T16:33:44;4.72;;;4.20;;
63817;SDS011;53093;55.092;73.476;2022-09-29T16:36:21;4.32;;;3.92;;
63817;SDS011;53093;55.092;73.476;2022-09-29T16:38:49;6.78;;;4.30;;
63817;SDS011;53093;55.092;73.476;2022-09-29T16:41:36;4.90;;;4.03;;
63817;SDS011;53093;55.092;73.476;2022-09-29T16:46:49;4.18;;;3.78;;
63817;SDS011;53093;55.092;73.476;2022-09-29T16:49:21;4.78;;;3.92;;
63817;SDS011;53093;55.092;73.476;2022-09-29T16:52:21;4.80;;;4.10;;
63817;SDS011;53093;55.092;73.476;2022-09-29T16:54:52;4.28;;;3.78;;
63817;SDS011;53093;55.092;73.476;2022-09-29T16:57:31;8.45;;;4.05;;
63817;SDS011;53093;55.092;73.476;2022-09-29T17:00:01;5.25;;;4.30;;
63817;SDS011;53093;55.092;73.476;2022-09-29T17:02:32;5.38;;;4.15;;
63817;SDS011;53093;55.092;73.476;2022-09-29T17:04:59;4.57;;;3.65;;
63817;SDS011;53093;55.092;73.476;2022-09-29T17:07:30;6.47;;;4.35;;
63817;SDS011;53093;55.092;73.476;2022-09-29T17:09:58;4.75;;;4.13;;
63817;SDS011;53093;55.092;73.476;2022-09-29T17:12:26;4.82;;;4.00;;
63817;SDS011;53093;55.092;73.476;2022-09-29T17:14:53;5.00;;;4.10;;
63817;SDS011;53093;55.092;73.476;2022-09-29T17:17:22;4.78;;;4.00;;
63817;SDS011;53093;55.092;73.476;2022-09-29T17:19:49;4.90;;;4.30;;
63817;SDS011;53093;55.092;73.476;2022-09-29T17:24:56;4.78;;;3.97;;
63817;SDS011;53093;55.092;73.476;2022-09-29T17:27:33;4.88;;;4.05;;
63817;SDS011;53093;55.092;73.476;2022-09-29T17:30:20;5.72;;;4.20;;
63817;SDS011;53093;55.092;73.476;2022-09-29T17:32:57;5.45;;;4.25;;
63817;SDS011;53093;55.092;73.476;2022-09-29T17:35:29;5.45;;;4.43;;
63817;SDS011;53093;55.092;73.476;2022-09-29T17:38:00;5.05;;;4.25;;
63817;SDS011;53093;55.092;73.476;2022-09-29T17:40:28;6.18;;;4.15;;
63817;SDS011;53093;55.092;73.476;2022-09-29T17:42:56;5.55;;;4.20;;
63817;SDS011;53093;55.092;73.476;2022-09-29T17:45:26;4.45;;;3.97;;
63817;SDS011;53093;55.092;73.476;2022-09-29T17:47:53;5.30;;;4.43;;
63817;SDS011;53093;55.092;73.476;2022-09-29T17:50:27;4.95;;;4.03;;
63817;SDS011;53093;55.092;73.476;2022-09-29T17:53:06;7.38;;;4.32;;
63817;SDS011;53093;55.092;73.476;2022-09-29T17:55:33;6.30;;;4.75;;
63817;SDS011;53093;55.092;73.476;2022-09-29T17:58:00;6.53;;;4.50;;
63817;SDS011;53093;55.092;73.476;2022-09-29T18:00:29;6.88;;;4.93;;
63817;SDS011;53093;55.092;73.476;2022-09-29T18:03:01;6.07;;;4.38;;
63817;SDS011;53093;55.092;73.476;2022-09-29T18:05:29;6.65;;;4.93;;
63817;SDS011;53093;55.092;73.476;2022-09-29T18:08:01;5.43;;;4.30;;
63817;SDS011;53093;55.092;73.476;2022-09-29T18:10:30;5.13;;;4.18;;
63817;SDS011;53093;55.092;73.476;2022-09-29T18:13:00;6.75;;;4.57;;
63817;SDS011;53093;55.092;73.476;2022-09-29T18:15:27;5.93;;;4.28;;
63817;SDS011;53093;55.092;73.476;2022-09-29T18:18:04;6.25;;;4.50;;